Terminal Aerodrome Forecast
Issued by NWS Cleveland, OH

Home | Current Version | Previous Version | Text Only | Print | Product List | Glossary On
Versions: 1 2 3 4 5 6 7 8 9 10 11 12 13 14 15 16 17 18 19
000
FTUS41 KCLE 202100 AAB
TAFMFD
TAF AMD
KMFD 202118Z 2021/2118 24020G35KT P6SM SCT025 OVC035
     FM202330 23012KT P6SM OVC025
     FM211200 23014G22KT P6SM SCT025 BKN040=

USA.gov is the U.S. government's official web portal to all federal, state and local government web resources and services.